createdAt,value
2018-11-22T12:15:51.940Z,32.73
2018-11-22T12:16:56.056Z,33.80
2018-11-22T12:18:00.220Z,33.65
2018-11-22T12:19:04.435Z,28.73
2018-11-22T12:20:09.915Z,32.80
2018-11-22T12:21:14.064Z,34.48
2018-11-22T12:22:18.137Z,35.13
2018-11-22T12:23:22.251Z,35.98
2018-11-22T12:24:26.629Z,32.08
2018-11-22T12:25:30.821Z,30.57
2018-11-22T12:26:34.992Z,29.63
2018-11-22T12:27:39.540Z,29.25
2018-11-22T12:28:43.708Z,33.35
2018-11-22T12:29:47.803Z,28.87
2018-11-22T12:30:51.852Z,37.28
2018-11-22T12:31:56.073Z,34.08
2018-11-22T12:33:01.922Z,29.92
2018-11-22T12:34:11.145Z,30.00
2018-11-22T12:35:20.545Z,28.27
2018-11-22T12:36:29.629Z,32.60
2018-11-22T12:37:43.120Z,30.60
2018-11-22T12:38:41.085Z,25.52
2018-11-22T12:39:45.235Z,30.05
2018-11-22T12:40:49.298Z,28.77
2018-11-22T12:41:53.431Z,31.55
2018-11-22T12:42:57.461Z,34.85
2018-11-22T12:44:01.585Z,41.50
2018-11-22T12:45:07.066Z,36.03
2018-11-22T12:46:16.341Z,38.30
2018-11-22T12:47:20.375Z,30.57
2018-11-22T12:48:24.547Z,34.05
2018-11-22T12:49:28.708Z,31.75
2018-11-22T12:50:32.879Z,29.55
2018-11-22T12:51:36.975Z,30.60
2018-11-22T12:52:46.019Z,30.30
2018-11-22T12:53:50.069Z,32.75
2018-11-22T12:54:54.295Z,30.00
2018-11-22T12:55:58.371Z,25.40
2018-11-22T12:57:02.501Z,29.72
2018-11-22T12:58:06.683Z,29.00
2018-11-22T12:59:11.433Z,23.80
2018-11-22T13:00:16.740Z,28.75
2018-11-22T13:01:20.891Z,27.42
2018-11-22T13:02:24.958Z,30.32
2018-11-22T13:03:29.162Z,26.55
2018-11-22T13:04:33.227Z,30.40
2018-11-22T13:05:37.376Z,31.48
2018-11-22T13:06:41.596Z,32.95
2018-11-22T13:07:45.701Z,31.40
2018-11-22T13:08:49.785Z,31.70
2018-11-22T13:09:53.936Z,34.67
2018-11-22T13:10:58.144Z,35.63
2018-11-22T13:12:02.346Z,26.15
2018-11-22T13:13:06.739Z,24.67
2018-11-22T13:14:11.009Z,29.60
2018-11-22T13:15:17.581Z,27.67
2018-11-22T13:16:21.732Z,29.82
2018-11-22T13:17:25.906Z,29.27
2018-11-22T13:18:30.067Z,29.12
2018-11-22T13:19:34.159Z,28.47
2018-11-22T13:20:38.264Z,28.38
2018-11-22T13:21:42.465Z,30.90
2018-11-22T13:22:46.476Z,31.80
2018-11-22T13:23:50.417Z,31.05
2018-11-22T13:24:54.523Z,29.98
2018-11-22T13:25:58.646Z,30.52
2018-11-22T13:27:02.675Z,32.45
2018-11-22T13:28:06.825Z,27.32
2018-11-22T13:29:10.858Z,36.77
2018-11-22T13:30:17.015Z,29.37
2018-11-22T13:31:20.971Z,35.88
2018-11-22T13:32:24.985Z,33.45
2018-11-22T13:33:28.976Z,37.17
2018-11-22T13:34:33.144Z,39.38
2018-11-22T13:35:37.157Z,35.28
2018-11-22T13:36:41.166Z,31.52
2018-11-22T13:37:46.507Z,32.38
2018-11-22T13:38:50.448Z,34.95
2018-11-22T13:39:54.442Z,40.98
2018-11-22T13:40:58.468Z,31.60
2018-11-22T13:42:06.421Z,34.53
2018-11-22T13:43:10.416Z,32.75
2018-11-22T13:44:19.468Z,37.40
2018-11-22T13:45:24.873Z,41.90
2018-11-22T13:46:29.011Z,46.42
2018-11-22T13:47:33.118Z,46.88
2018-11-22T13:48:37.120Z,47.10
2018-11-22T13:49:41.303Z,61.00
2018-11-22T13:50:45.418Z,53.52
2018-11-22T13:51:49.575Z,43.78
2018-11-22T13:52:55.442Z,34.20
2018-11-22T13:53:59.531Z,32.08
2018-11-22T13:55:03.733Z,30.85
2018-11-22T13:56:07.821Z,31.30
2018-11-22T13:57:12.095Z,50.92
2018-11-22T13:58:16.096Z,46.70
2018-11-22T13:59:20.231Z,38.00
2018-11-22T14:00:26.666Z,32.78
2018-11-22T14:01:30.903Z,36.48
2018-11-22T14:02:34.961Z,43.58
2018-11-22T14:03:39.093Z,47.13
2018-11-22T14:04:43.176Z,40.40
2018-11-22T14:05:47.350Z,34.23
2018-11-22T14:06:51.434Z,34.70
2018-11-22T14:07:55.492Z,38.40
2018-11-22T14:08:59.986Z,44.93
2018-11-22T14:10:05.055Z,50.25
2018-11-22T14:11:13.538Z,66.80
2018-11-22T14:12:13.339Z,52.55
2018-11-22T14:13:17.498Z,58.37
2018-11-22T14:14:21.616Z,39.50
2018-11-22T14:15:27.425Z,43.08
2018-11-22T14:16:31.654Z,50.48
2018-11-22T14:17:35.704Z,39.80
2018-11-22T14:18:39.940Z,37.50
2018-11-22T14:19:44.041Z,40.90
2018-11-22T14:20:48.138Z,38.30
2018-11-22T14:21:52.255Z,38.42
2018-11-22T14:22:56.388Z,46.85
2018-11-22T14:24:00.512Z,42.65
2018-11-22T14:25:07.959Z,65.08
2018-11-22T14:26:12.180Z,154.53
2018-11-22T14:27:16.560Z,366.77
2018-11-22T14:28:20.798Z,687.15
2018-11-22T14:29:24.873Z,264.75
2018-11-22T14:30:30.777Z,194.65
2018-11-22T14:31:35.229Z,109.42
2018-11-22T14:32:40.227Z,400.60
2018-11-22T14:33:44.426Z,189.90
2018-11-22T14:34:48.537Z,221.43
2018-11-22T14:35:52.657Z,748.13
2018-11-22T14:36:57.060Z,1053.45
2018-11-22T14:38:01.184Z,417.18
2018-11-22T14:39:06.480Z,59.93
2018-11-22T14:40:20.257Z,38.17
2018-11-22T14:41:24.471Z,50.57
2018-11-22T14:42:28.631Z,60.10
2018-11-22T14:43:32.721Z,617.58
2018-11-22T14:44:36.824Z,665.52
2018-11-22T14:45:40.978Z,452.37
2018-11-22T14:46:45.096Z,557.57
2018-11-22T14:47:50.497Z,691.17
2018-11-22T14:48:54.581Z,671.40
2018-11-22T14:49:58.903Z,202.95
2018-11-22T14:51:13.213Z,79.27
2018-11-22T14:52:17.932Z,54.18
2018-11-22T14:53:22.864Z,51.30
2018-11-22T14:54:27.052Z,54.55
2018-11-22T14:55:31.584Z,59.03
2018-11-22T14:56:35.690Z,54.77
2018-11-22T14:57:39.864Z,55.30
2018-11-22T14:58:43.941Z,46.58
2018-11-22T14:59:48.102Z,46.48
2018-11-22T15:00:52.138Z,43.70
2018-11-22T15:02:01.351Z,46.35
2018-11-22T15:03:05.710Z,112.85
2018-11-22T15:04:09.952Z,107.07
2018-11-22T15:05:14.701Z,60.15
2018-11-22T15:06:18.782Z,55.85
2018-11-22T15:07:28.570Z,48.85
2018-11-22T15:08:27.201Z,51.35
2018-11-22T15:09:31.328Z,68.10
2018-11-22T15:10:35.455Z,69.32
2018-11-22T15:11:39.542Z,57.25
2018-11-22T15:12:44.657Z,52.78
2018-11-22T15:13:48.826Z,56.18
2018-11-22T15:14:52.881Z,56.02
2018-11-22T15:15:57.058Z,49.25
2018-11-22T15:17:01.255Z,48.35
2018-11-22T15:18:05.385Z,50.28
2018-11-22T15:19:09.468Z,47.03
2018-11-22T15:20:14.820Z,45.75
2018-11-22T15:21:18.907Z,48.68
2018-11-22T15:22:22.954Z,51.28
2018-11-22T15:23:26.984Z,48.35
2018-11-22T15:24:31.113Z,51.15
2018-11-22T15:25:35.400Z,53.85
2018-11-22T15:26:39.453Z,72.45
2018-11-22T15:27:44.122Z,72.97
2018-11-22T15:28:48.081Z,66.42
2018-11-22T15:29:57.371Z,56.68
2018-11-22T15:31:01.422Z,56.33
2018-11-22T15:32:05.447Z,49.83
2018-11-22T15:33:09.629Z,46.35
2018-11-22T15:34:13.737Z,54.33
2018-11-22T15:35:19.223Z,50.67
2018-11-22T15:36:23.700Z,51.88
2018-11-22T15:37:33.023Z,61.48
2018-11-22T15:38:37.030Z,46.35
2018-11-22T15:39:41.350Z,50.25
2018-11-22T15:40:45.373Z,55.50
2018-11-22T15:41:49.508Z,53.52
2018-11-22T15:42:55.023Z,55.43
2018-11-22T15:43:59.341Z,44.27
2018-11-22T15:45:03.857Z,41.40
2018-11-22T15:46:07.892Z,55.12
2018-11-22T15:47:12.111Z,54.35
2018-11-22T15:48:16.238Z,55.83
2018-11-22T15:49:20.324Z,52.25
2018-11-22T15:50:25.783Z,41.45
2018-11-22T15:51:29.960Z,43.25
2018-11-22T15:52:34.099Z,46.45
2018-11-22T15:53:38.089Z,46.70
2018-11-22T15:54:42.210Z,92.35
2018-11-22T15:55:46.202Z,57.83
2018-11-22T15:56:50.245Z,50.25
2018-11-22T15:57:56.247Z,44.50
2018-11-22T15:59:00.495Z,50.03
2018-11-22T16:00:05.233Z,47.98
2018-11-22T16:01:10.745Z,44.18
2018-11-22T16:02:14.821Z,45.83
2018-11-22T16:03:18.901Z,48.85
2018-11-22T16:04:23.181Z,58.02
2018-11-22T16:05:28.004Z,57.88
2018-11-22T16:06:32.096Z,56.75
2018-11-22T16:07:36.384Z,52.90
2018-11-22T16:08:40.556Z,57.80
2018-11-22T16:09:44.595Z,51.13
2018-11-22T16:10:48.670Z,47.27
2018-11-22T16:11:52.870Z,58.55
2018-11-22T16:12:58.603Z,51.42
2018-11-22T16:14:03.378Z,49.33
2018-11-22T16:15:11.230Z,49.27
2018-11-22T16:16:15.422Z,48.87
2018-11-22T16:17:19.622Z,50.80
2018-11-22T16:18:24.004Z,51.45
2018-11-22T16:19:28.390Z,50.35
2018-11-22T16:20:34.470Z,52.62
2018-11-22T16:21:38.899Z,58.13
2018-11-22T16:22:43.417Z,64.17
2018-11-22T16:23:48.022Z,59.15
2018-11-22T16:24:52.463Z,59.05
2018-11-22T16:25:57.143Z,55.35
2018-11-22T16:27:01.441Z,54.75
2018-11-22T16:28:05.977Z,53.63
2018-11-22T16:29:10.285Z,54.60
2018-11-22T16:30:17.859Z,57.95
2018-11-22T16:31:22.269Z,55.73
2018-11-22T16:32:27.017Z,55.88
2018-11-22T16:33:31.627Z,65.00
2018-11-22T16:34:36.462Z,55.25
2018-11-22T16:35:45.869Z,57.98
2018-11-22T16:36:51.020Z,63.48
2018-11-22T16:37:55.359Z,64.00
2018-11-22T16:38:59.817Z,72.20
2018-11-22T16:40:07.836Z,67.60
2018-11-22T16:41:12.484Z,74.32
2018-11-22T16:42:17.147Z,69.65
2018-11-22T16:43:22.295Z,71.70
2018-11-22T16:44:26.865Z,77.08
2018-11-22T16:45:34.416Z,63.05
2018-11-22T16:46:39.224Z,61.05
2018-11-22T16:47:44.041Z,55.45
2018-11-22T16:48:48.487Z,52.23
2018-11-22T16:49:53.251Z,58.68
2018-11-22T16:50:57.746Z,55.95
2018-11-22T16:52:03.057Z,58.33
2018-11-22T16:53:07.647Z,57.35
2018-11-22T16:54:12.366Z,58.25
2018-11-22T16:55:16.927Z,61.00
2018-11-22T16:56:21.463Z,70.70
2018-11-22T16:57:26.416Z,59.55
2018-11-22T16:58:34.198Z,58.87
2018-11-22T16:59:37.602Z,113.30
2018-11-22T17:00:42.371Z,86.90
2018-11-22T17:01:46.876Z,92.20
2018-11-22T17:02:52.350Z,521.35
2018-11-22T17:03:56.694Z,378.32
2018-11-22T17:05:00.867Z,184.93
2018-11-22T17:06:05.520Z,165.33
2018-11-22T17:07:09.704Z,84.52
2018-11-22T17:08:15.193Z,70.35
2018-11-22T17:09:19.829Z,67.37
2018-11-22T17:10:25.744Z,64.42
2018-11-22T17:11:30.460Z,60.95
2018-11-22T17:12:34.944Z,71.02
2018-11-22T17:13:39.340Z,65.40
2018-11-22T17:14:43.919Z,54.13
2018-11-22T17:15:48.455Z,61.95
2018-11-22T17:16:52.892Z,57.95
2018-11-22T17:17:57.416Z,56.83
2018-11-22T17:19:01.822Z,57.75
2018-11-22T17:20:06.421Z,61.30
2018-11-22T17:21:10.817Z,63.60
2018-11-22T17:22:15.367Z,67.58
2018-11-22T17:23:20.045Z,58.75
2018-11-22T17:24:24.550Z,63.58
2018-11-22T17:25:30.370Z,54.98
2018-11-22T17:26:37.582Z,54.42
2018-11-22T17:27:42.614Z,55.78
2018-11-22T17:28:46.998Z,55.03
2018-11-22T17:29:51.420Z,89.92
2018-11-22T17:30:55.774Z,87.47
2018-11-22T17:32:00.150Z,86.53
2018-11-22T17:33:04.635Z,70.55
2018-11-22T17:34:09.139Z,66.22
2018-11-22T17:35:15.260Z,63.73
2018-11-22T17:36:19.753Z,62.78
2018-11-22T17:37:24.022Z,63.42
2018-11-22T17:38:28.439Z,54.48
2018-11-22T17:39:33.133Z,60.58
2018-11-22T17:40:40.210Z,61.77
2018-11-22T17:41:44.644Z,59.33
2018-11-22T17:42:49.160Z,51.70
2018-11-22T17:43:53.407Z,54.60
2018-11-22T17:44:57.599Z,52.93
2018-11-22T17:46:01.775Z,51.88
2018-11-22T17:47:06.509Z,54.83
2018-11-22T17:48:10.956Z,57.00
2018-11-22T17:49:15.350Z,56.53
2018-11-22T17:50:19.844Z,65.35
2018-11-22T17:51:24.163Z,70.22
2018-11-22T17:52:28.413Z,73.83
2018-11-22T17:53:32.614Z,79.15
2018-11-22T17:54:37.028Z,84.00
2018-11-22T17:55:41.613Z,79.00
2018-11-22T17:56:46.196Z,80.07
2018-11-22T17:57:50.785Z,89.72
2018-11-22T17:58:55.092Z,97.97
2018-11-22T17:59:59.890Z,65.65
2018-11-22T18:01:04.367Z,66.02
2018-11-22T18:02:09.067Z,68.83
2018-11-22T18:03:13.442Z,64.32
2018-11-22T18:04:17.990Z,55.58
2018-11-22T18:05:27.092Z,58.15
2018-11-22T18:06:31.893Z,52.55
2018-11-22T18:07:36.326Z,72.35
2018-11-22T18:08:40.943Z,72.03
2018-11-22T18:09:45.336Z,53.45
2018-11-22T18:10:50.061Z,54.27
2018-11-22T18:11:54.579Z,49.77
2018-11-22T18:13:00.445Z,54.48
2018-11-22T18:14:05.791Z,53.20
2018-11-22T18:15:12.186Z,72.92
2018-11-22T18:16:16.855Z,58.65
2018-11-22T18:17:21.286Z,50.03
2018-11-22T18:18:26.864Z,53.10
2018-11-22T18:19:32.020Z,48.52
2018-11-22T18:20:36.742Z,51.45
2018-11-22T18:21:41.570Z,55.95
2018-11-22T18:22:46.633Z,49.45
2018-11-22T18:23:51.575Z,52.25
2018-11-22T18:24:56.058Z,52.90
2018-11-22T18:26:00.394Z,48.83
2018-11-22T18:27:05.699Z,46.50
2018-11-22T18:28:10.177Z,54.83
2018-11-22T18:29:14.344Z,47.33
2018-11-22T18:30:22.957Z,47.33
2018-11-22T18:31:27.219Z,49.25
2018-11-22T18:32:31.860Z,50.52
2018-11-22T18:33:37.535Z,64.45
2018-11-22T18:34:42.066Z,53.27
2018-11-22T18:35:46.665Z,56.45
2018-11-22T18:36:51.346Z,53.52
2018-11-22T18:37:55.500Z,45.70
2018-11-22T18:39:05.143Z,49.08
2018-11-22T18:40:14.829Z,45.60
2018-11-22T18:41:18.983Z,54.58
2018-11-22T18:42:23.132Z,61.37
2018-11-22T18:43:27.210Z,69.22
2018-11-22T18:44:31.349Z,62.23
2018-11-22T18:45:36.945Z,68.92
2018-11-22T18:46:41.053Z,63.40
2018-11-22T18:47:46.265Z,55.83
2018-11-22T18:48:50.421Z,68.02
2018-11-22T18:49:54.542Z,60.25
2018-11-22T18:50:58.778Z,67.08
2018-11-22T18:52:03.055Z,59.05
2018-11-22T18:53:07.266Z,59.48
2018-11-22T18:54:11.464Z,55.52
2018-11-22T18:55:15.844Z,56.85
2018-11-22T18:58:48.589Z,56.00
2018-11-22T18:59:52.669Z,66.15
2018-11-22T19:00:56.821Z,57.08
2018-11-22T19:02:01.466Z,66.42
2018-11-22T19:03:08.393Z,63.10
2018-11-22T19:04:12.619Z,61.73
2018-11-22T19:05:17.253Z,58.35
2018-11-22T19:06:21.453Z,61.45
2018-11-22T19:07:25.747Z,56.77
2018-11-22T19:08:29.861Z,53.68
2018-11-22T19:09:34.162Z,54.60
2018-11-22T19:10:39.717Z,54.27
2018-11-22T19:11:43.828Z,46.70
2018-11-22T19:12:49.393Z,50.63
2018-11-22T19:13:53.623Z,51.37
2018-11-22T19:14:57.826Z,44.98
2018-11-22T19:16:02.042Z,49.67
2018-11-22T19:17:06.263Z,53.87
2018-11-22T19:18:11.266Z,51.23
2018-11-22T19:19:16.463Z,49.42
2018-11-22T19:20:23.086Z,51.88
2018-11-22T19:21:27.371Z,55.33
2018-11-22T19:22:31.680Z,61.42
2018-11-22T19:23:35.973Z,58.92
2018-11-22T19:24:45.905Z,61.42
2018-11-22T19:25:50.018Z,56.02
2018-11-22T19:26:54.165Z,53.02
2018-11-22T19:27:59.370Z,59.58
2018-11-22T19:29:03.468Z,64.07
2018-11-22T19:30:11.273Z,51.50
2018-11-22T19:31:15.609Z,50.83
2018-11-22T19:32:19.789Z,49.53
2018-11-22T19:33:23.987Z,51.85
2018-11-22T19:34:28.197Z,56.28
2018-11-22T19:35:33.971Z,51.48
2018-11-22T19:36:38.251Z,53.05
2018-11-22T19:37:47.646Z,64.55
2018-11-22T19:38:51.899Z,55.23
2018-11-22T19:39:56.150Z,55.25
2018-11-22T19:41:05.578Z,52.60
2018-11-22T19:42:10.547Z,56.55
2018-11-22T19:43:14.939Z,51.48
2018-11-22T19:44:19.176Z,50.83
2018-11-22T19:45:24.835Z,62.93
2018-11-22T19:46:34.925Z,49.98
2018-11-22T19:47:39.174Z,53.00
2018-11-22T19:48:43.448Z,51.63
2018-11-22T19:49:47.598Z,47.35
2018-11-22T19:50:51.750Z,49.58
2018-11-22T19:51:55.892Z,54.75
2018-11-22T19:53:01.261Z,49.13
2018-11-22T19:54:05.682Z,53.68
2018-11-22T19:55:12.607Z,52.75
2018-11-22T19:56:16.779Z,51.63
2018-11-22T19:57:21.024Z,52.65
2018-11-22T19:58:25.224Z,48.98
2018-11-22T19:59:29.455Z,51.25
2018-11-22T20:00:33.620Z,52.38
2018-11-22T20:01:37.771Z,49.98
2018-11-22T20:02:42.792Z,57.67
2018-11-22T20:03:46.932Z,53.95
2018-11-22T20:04:51.094Z,52.78
2018-11-22T20:05:55.407Z,52.95
2018-11-22T20:06:59.532Z,56.63
2018-11-22T20:08:05.396Z,53.48
2018-11-22T20:09:11.206Z,59.85
2018-11-22T20:10:18.268Z,55.03
2018-11-22T20:11:22.527Z,57.62
2018-11-22T20:12:26.773Z,62.23
2018-11-22T20:13:31.032Z,60.35
2018-11-22T20:14:35.305Z,66.75
2018-11-22T20:15:39.504Z,64.62
2018-11-22T20:16:43.699Z,62.60
2018-11-22T20:17:48.823Z,66.87
2018-11-22T20:18:53.143Z,67.42
2018-11-22T20:19:57.665Z,71.02
2018-11-22T20:21:01.832Z,60.10
2018-11-22T20:22:06.059Z,58.02
2018-11-22T20:23:10.342Z,63.83
2018-11-22T20:24:14.577Z,66.17
2018-11-22T20:25:18.817Z,63.87
2018-11-22T20:26:22.929Z,71.12
2018-11-22T20:27:27.755Z,70.42
2018-11-22T20:28:31.844Z,65.32
2018-11-22T20:29:36.015Z,66.42
2018-11-22T20:30:45.293Z,64.70
2018-11-22T20:31:49.485Z,65.35
2018-11-22T20:32:53.690Z,74.75
2018-11-22T20:33:57.913Z,69.32
2018-11-22T20:35:02.105Z,70.95
2018-11-22T20:36:06.927Z,65.15
2018-11-22T20:37:11.444Z,65.37
2018-11-22T20:38:15.815Z,70.20
2018-11-22T20:39:20.081Z,60.90
2018-11-22T20:40:25.584Z,60.20
2018-11-22T20:41:29.764Z,62.50
2018-11-22T20:42:33.953Z,62.45
2018-11-22T20:43:38.105Z,61.58
2018-11-22T20:44:42.466Z,65.97
2018-11-22T20:45:46.792Z,58.68
2018-11-22T20:46:51.313Z,59.00
2018-11-22T20:47:57.109Z,64.03
2018-11-22T20:49:01.259Z,67.90
2018-11-22T20:50:07.124Z,86.02
2018-11-22T20:51:11.418Z,63.90
2018-11-22T20:52:15.690Z,75.03
2018-11-22T20:53:20.016Z,69.42
2018-11-22T20:54:24.305Z,94.75
2018-11-22T20:55:37.363Z,98.82
2018-11-22T21:00:03.692Z,79.35
2018-11-22T21:01:10.284Z,89.90
2018-11-22T21:02:16.130Z,75.47
2018-11-22T21:03:23.021Z,69.58
2018-11-22T21:04:30.280Z,75.15
2018-11-22T21:05:35.114Z,73.95
2018-11-22T21:06:40.770Z,80.07
2018-11-22T21:07:47.382Z,72.55
2018-11-22T21:08:56.474Z,74.82
2018-11-22T21:11:09.375Z,74.20
2018-11-22T21:12:16.482Z,78.85
2018-11-22T21:13:23.131Z,78.47
2018-11-22T21:14:29.670Z,74.40
2018-11-22T21:15:34.718Z,74.70
2018-11-22T21:16:38.875Z,82.15
2018-11-22T21:17:43.256Z,75.55
2018-11-22T21:18:47.504Z,70.60
2018-11-22T21:20:03.647Z,66.90
2018-11-22T21:21:09.008Z,75.08
2018-11-22T21:22:13.611Z,73.02
2018-11-22T21:23:17.813Z,76.05
2018-11-22T21:24:22.059Z,75.08
2018-11-22T21:25:29.511Z,78.47
2018-11-22T21:26:33.849Z,74.80
2018-11-22T21:27:38.110Z,75.78
2018-11-22T21:31:10.786Z,71.42
2018-11-22T21:32:15.040Z,79.15
2018-11-22T21:33:19.204Z,75.57
2018-11-22T21:34:24.354Z,84.90
2018-11-22T21:35:29.053Z,82.50
2018-11-22T21:36:33.352Z,80.00
2018-11-22T21:37:37.681Z,77.58
2018-11-22T21:38:41.949Z,74.47
2018-11-22T21:39:46.203Z,75.75
2018-11-22T21:40:50.603Z,82.53
2018-11-22T21:41:57.801Z,82.85
2018-11-22T21:43:02.510Z,90.20
2018-11-22T21:44:06.800Z,74.55
2018-11-22T21:45:18.559Z,77.82
2018-11-22T21:46:27.844Z,81.20
2018-11-22T21:47:31.933Z,77.58
2018-11-22T21:48:36.037Z,80.20
2018-11-22T21:49:40.192Z,77.60
2018-11-22T21:50:44.376Z,77.87
2018-11-22T21:51:48.651Z,88.67
2018-11-22T21:52:53.782Z,88.17
2018-11-22T21:53:58.044Z,85.97
2018-11-22T21:55:02.206Z,80.17
2018-11-22T21:56:06.624Z,82.15
2018-11-22T21:57:11.008Z,79.60
2018-11-22T21:58:15.088Z,82.88
2018-11-22T21:59:19.399Z,87.02
2018-11-22T22:00:29.241Z,88.62
2018-11-22T22:01:33.444Z,78.00
2018-11-22T22:02:37.659Z,75.08
2018-11-22T22:03:41.881Z,78.10
2018-11-22T22:04:46.043Z,81.60
2018-11-22T22:05:50.404Z,74.75
2018-11-22T22:06:57.566Z,83.17
2018-11-22T22:08:01.919Z,82.47
2018-11-22T22:09:10.122Z,85.97
2018-11-22T22:10:14.324Z,78.55
2018-11-22T22:11:18.877Z,79.00
2018-11-22T22:12:24.408Z,79.45
2018-11-22T22:13:28.524Z,74.97
2018-11-22T22:14:32.610Z,80.15
2018-11-22T22:15:37.610Z,80.83
2018-11-22T22:16:41.874Z,74.15
2018-11-22T22:17:46.652Z,77.80
2018-11-22T22:18:50.766Z,79.77
2018-11-22T22:19:55.097Z,87.10
2018-11-22T22:20:59.201Z,85.28
2018-11-22T22:22:08.851Z,81.32
2018-11-22T22:23:13.589Z,77.00
2018-11-22T22:24:17.250Z,78.55
2018-11-22T22:25:22.379Z,84.97
2018-11-22T22:26:26.484Z,87.75
2018-11-22T22:27:30.543Z,83.97
2018-11-22T22:28:34.631Z,83.42
2018-11-22T22:29:39.939Z,77.35
2018-11-22T22:30:43.938Z,81.42
2018-11-22T22:31:48.072Z,87.45
2018-11-22T22:32:54.490Z,90.97
2018-11-22T22:33:58.614Z,84.77
2018-11-22T22:35:02.745Z,86.37
2018-11-22T22:36:06.782Z,83.85
2018-11-22T22:37:12.239Z,81.67
2018-11-22T22:38:16.271Z,75.00
2018-11-22T22:39:20.415Z,79.50
2018-11-22T22:40:25.706Z,77.55
2018-11-22T22:41:35.376Z,86.22
2018-11-22T22:42:39.997Z,88.75
2018-11-22T22:43:44.042Z,81.32
2018-11-22T22:44:47.994Z,89.85
2018-11-22T22:45:51.984Z,88.72
2018-11-22T22:46:56.016Z,87.62
2018-11-22T22:48:00.365Z,82.42
2018-11-22T22:49:04.556Z,78.22
2018-11-22T22:50:11.321Z,75.80
2018-11-22T22:51:15.418Z,74.85
2018-11-22T22:52:19.600Z,78.67
2018-11-22T22:53:23.761Z,74.58
2018-11-22T22:54:27.759Z,79.75
2018-11-22T22:55:32.143Z,81.08
2018-11-22T22:56:36.238Z,77.67
2018-11-22T22:57:40.771Z,84.70
2018-11-22T22:58:44.830Z,84.55
2018-11-22T22:59:48.838Z,80.12
2018-11-22T23:00:52.975Z,84.22
2018-11-22T23:01:57.037Z,91.85
2018-11-22T23:03:03.416Z,82.08
2018-11-22T23:04:07.491Z,73.10
2018-11-22T23:05:11.720Z,70.22
2018-11-22T23:06:15.800Z,69.40
2018-11-22T23:07:19.856Z,71.30
2018-11-22T23:08:24.009Z,75.83
2018-11-22T23:09:28.003Z,74.05
2018-11-22T23:10:32.075Z,69.27
2018-11-22T23:11:36.145Z,67.40
2018-11-22T23:12:40.211Z,67.72
2018-11-22T23:13:44.277Z,72.03
2018-11-22T23:14:48.303Z,69.85
2018-11-22T23:15:52.370Z,71.17
2018-11-22T23:16:56.393Z,73.17
2018-11-22T23:18:00.432Z,73.60
2018-11-22T23:19:04.640Z,73.12
2018-11-22T23:20:11.336Z,71.75
2018-11-22T23:21:15.268Z,70.03
2018-11-22T23:22:19.244Z,78.42
2018-11-22T23:23:23.316Z,71.47
2018-11-22T23:24:27.309Z,95.15
2018-11-22T23:25:31.345Z,105.60
2018-11-22T23:26:35.365Z,100.62
2018-11-22T23:27:39.876Z,89.37
2018-11-22T23:28:43.949Z,79.85
2018-11-22T23:29:47.917Z,78.92
2018-11-22T23:30:51.918Z,76.75
2018-11-22T23:31:55.941Z,70.22
2018-11-22T23:33:02.338Z,100.42
2018-11-22T23:34:06.462Z,88.75
2018-11-22T23:35:10.762Z,80.28
2018-11-22T23:36:14.799Z,82.85
2018-11-22T23:37:18.771Z,80.75
2018-11-22T23:38:22.864Z,116.50
2018-11-22T23:39:27.559Z,97.50
2018-11-22T23:40:32.584Z,79.47
2018-11-22T23:41:36.562Z,77.27
2018-11-22T23:42:44.311Z,78.30
2018-11-22T23:43:48.364Z,80.67
2018-11-22T23:44:52.438Z,88.45
2018-11-22T23:45:56.389Z,78.02
2018-11-22T23:47:00.360Z,74.95
2018-11-22T23:48:04.513Z,74.30
2018-11-22T23:49:08.474Z,75.17
2018-11-22T23:50:14.713Z,73.02
2018-11-22T23:51:18.677Z,71.75
2018-11-22T23:52:22.677Z,68.22
2018-11-22T23:53:26.664Z,67.30
2018-11-22T23:54:30.646Z,77.25
2018-11-22T23:55:34.659Z,65.15
2018-11-22T23:56:38.602Z,80.77
2018-11-22T23:57:42.601Z,86.12
2018-11-22T23:58:46.684Z,73.02
2018-11-22T23:59:50.724Z,70.85
